LDPL/PUY METAR and TAF weather

Enter ICAO airport designator
Station Type Date Time Source
LDPL METAR 2019/09/21 04:30 UTC NOAA

LDPL 210430Z 04007KT CAVOK 12/03 Q1023 NOSIG


Station Type Date Time Source
LDPL Decoded METAR 2019/09/21 04:30 UTC NOAA

Pula Aerodrome, Croatia (LDPL) 45-54N 013-55E 63M
Sep 21, 2019 - 12:30 AM EDT / 2019.09.21 0430 UTC
Wind: from the NE (040 degrees) at 8 MPH (7 KT):0
Visibility: greater than 7 mile(s):0
Temperature: 53 F (12 C)
Dew Point: 37 F (3 C)
Relative Humidity: 54%
Pressure (altimeter): 30.21 in. Hg (1023 hPa)
ob: LDPL 210430Z 04007KT CAVOK 12/03 Q1023 NOSIG
cycle: 4

Station Type Date Time Source
LDPL TAF 2019/09/20 18:27 UTC NOAA

TAF LDPL 201725Z 2018/2118 02006KT CAVOK TX20/2113Z TN13/2104Z

Example: see airport list